createdAt,value
2017-01-24T00:02:08.585Z,57.1
2017-01-24T00:04:20.797Z,57.09
2017-01-24T00:06:33.802Z,57.06
2017-01-24T00:08:46.627Z,57.05
2017-01-24T00:10:59.534Z,57.06
2017-01-24T00:13:11.974Z,57.04
2017-01-24T00:15:24.634Z,57.01
2017-01-24T00:17:37.447Z,56.99
2017-01-24T00:19:50.205Z,56.98
2017-01-24T00:21:57.936Z,56.98
2017-01-24T00:24:10.562Z,56.96
2017-01-24T00:26:22.888Z,56.96
2017-01-24T00:28:31.274Z,56.95
2017-01-24T00:30:43.532Z,56.96
2017-01-24T00:32:50.862Z,56.94
2017-01-24T00:34:59.170Z,56.91
2017-01-24T00:37:11.632Z,56.89
2017-01-24T00:39:24.994Z,56.87
2017-01-24T00:41:32.554Z,56.86
2017-01-24T00:43:39.790Z,56.86
2017-01-24T00:45:47.053Z,56.85
2017-01-24T00:47:59.589Z,56.88
2017-01-24T00:50:07.588Z,56.89
2017-01-24T00:52:20.465Z,56.89
2017-01-24T00:54:32.727Z,56.92
2017-01-24T00:56:45.203Z,56.93
2017-01-24T00:58:57.520Z,56.93
2017-01-24T01:01:10.138Z,56.93
2017-01-24T01:03:22.332Z,56.93
2017-01-24T01:05:34.545Z,56.95
2017-01-24T01:07:46.986Z,57.01
2017-01-24T01:10:16.237Z,57.01
2017-01-24T01:12:36.279Z,57.02
2017-01-24T01:14:48.507Z,57.05
2017-01-24T01:17:00.721Z,57.07
2017-01-24T01:19:13.156Z,57.1
2017-01-24T01:21:25.457Z,57.1
2017-01-24T01:23:33.218Z,57.1
2017-01-24T01:25:41.250Z,57.11
2017-01-24T01:27:53.541Z,57.13
2017-01-24T01:30:05.781Z,57.12
2017-01-24T01:32:18.136Z,57.12
2017-01-24T01:34:25.595Z,57.11
2017-01-24T01:36:37.795Z,57.1
2017-01-24T01:38:50.361Z,57.11
2017-01-24T01:41:02.776Z,57.12
2017-01-24T01:43:10.042Z,57.12
2017-01-24T01:45:22.382Z,57.12
2017-01-24T01:47:29.824Z,57.08
2017-01-24T01:49:42.202Z,57.03
2017-01-24T01:51:54.371Z,57
2017-01-24T01:54:06.623Z,57.02
2017-01-24T01:56:18.951Z,57.04
2017-01-24T01:58:26.775Z,57.04
2017-01-24T02:00:39.604Z,57.06
2017-01-24T02:02:46.868Z,57.12
2017-01-24T02:04:59.168Z,57.16
2017-01-24T02:07:11.475Z,57.16
2017-01-24T02:09:23.994Z,57.16
2017-01-24T02:11:36.524Z,57.13
2017-01-24T02:13:48.950Z,57.16
2017-01-24T02:16:01.126Z,57.2
2017-01-24T02:18:13.357Z,57.23
2017-01-24T02:20:25.583Z,57.28
2017-01-24T02:22:38.007Z,57.32
2017-01-24T02:24:50.380Z,57.35
2017-01-24T02:27:02.622Z,57.37
2017-01-24T02:29:14.925Z,57.41
2017-01-24T02:31:27.079Z,57.38
2017-01-24T02:33:39.981Z,57.41
2017-01-24T02:35:47.693Z,57.41
2017-01-24T02:38:00.125Z,57.42
2017-01-24T02:40:07.390Z,57.42
2017-01-24T02:42:19.547Z,57.46
2017-01-24T02:44:32.071Z,57.45
2017-01-24T02:46:39.523Z,57.52
2017-01-24T02:48:51.768Z,57.57
2017-01-24T02:51:04.198Z,57.6
2017-01-24T02:53:14.832Z,57.62
2017-01-24T02:55:27.270Z,57.67
2017-01-24T02:57:34.756Z,57.65
2017-01-24T02:59:47.298Z,57.65
2017-01-24T03:01:59.973Z,57.68
2017-01-24T03:04:12.283Z,57.69
2017-01-24T03:06:25.220Z,57.7
2017-01-24T03:08:37.722Z,57.73
2017-01-24T03:10:44.920Z,57.79
2017-01-24T03:12:57.209Z,57.81
2017-01-24T03:15:09.395Z,57.8
2017-01-24T03:17:21.859Z,57.84
2017-01-24T03:19:34.102Z,57.89
2017-01-24T03:21:46.395Z,57.89
2017-01-24T03:23:58.870Z,57.96
2017-01-24T03:26:11.150Z,57.98
2017-01-24T03:28:23.409Z,57.93
2017-01-24T03:30:40.096Z,57.9
2017-01-24T03:32:52.287Z,57.95
2017-01-24T03:35:04.611Z,57.89
2017-01-24T03:37:15.050Z,57.93
2017-01-24T03:39:27.363Z,57.94
2017-01-24T03:41:40.082Z,57.99
2017-01-24T03:43:52.662Z,58.02
2017-01-24T03:46:04.992Z,58
2017-01-24T03:48:12.351Z,57.99
2017-01-24T03:50:24.525Z,58
2017-01-24T03:52:37.854Z,58.1
2017-01-24T03:54:50.164Z,58.15
2017-01-24T03:57:02.464Z,58.19
2017-01-24T03:59:14.732Z,58.15
2017-01-24T04:01:26.943Z,58.1
2017-01-24T04:03:39.441Z,58.1
2017-01-24T04:05:46.670Z,58.16
2017-01-24T04:07:48.924Z,58.17
2017-01-24T04:10:01.388Z,58.2
2017-01-24T04:12:14.450Z,58.21
2017-01-24T04:14:27.803Z,58.24
2017-01-24T04:16:41.586Z,58.25
2017-01-24T04:18:55.416Z,58.19
2017-01-24T04:21:08.793Z,58.19
2017-01-24T04:23:22.648Z,58.19
2017-01-24T04:25:35.602Z,58.19
2017-01-24T04:27:49.113Z,58.21
2017-01-24T04:30:02.434Z,58.25
2017-01-24T04:32:15.629Z,58.25
2017-01-24T04:34:23.798Z,58.19
2017-01-24T04:36:36.647Z,58.19
2017-01-24T04:38:49.564Z,58.24
2017-01-24T04:41:02.276Z,58.26
2017-01-24T04:43:11.740Z,58.21
2017-01-24T04:45:25.060Z,58.21
2017-01-24T04:47:38.424Z,58.26
2017-01-24T04:49:52.001Z,58.23
2017-01-24T04:52:05.983Z,58.32
2017-01-24T04:54:19.089Z,58.29
2017-01-24T04:56:32.060Z,58.28
2017-01-24T04:58:40.029Z,58.3
2017-01-24T05:00:52.834Z,58.24
2017-01-24T05:03:05.444Z,58.28
2017-01-24T05:05:17.640Z,58.32
2017-01-24T05:07:30.041Z,58.33
2017-01-24T05:09:42.480Z,58.35
2017-01-24T05:11:54.992Z,58.38
2017-01-24T05:14:07.649Z,58.36
2017-01-24T05:16:20.192Z,58.36
2017-01-24T05:18:33.368Z,58.4
2017-01-24T05:20:45.876Z,58.44
2017-01-24T05:22:58.172Z,58.41
2017-01-24T05:25:11.772Z,58.41
2017-01-24T05:27:24.644Z,58.39
2017-01-24T05:29:38.163Z,58.42
2017-01-24T05:31:51.657Z,58.43
2017-01-24T05:34:04.290Z,58.38
2017-01-24T05:36:16.974Z,58.41
2017-01-24T05:38:29.873Z,58.45
2017-01-24T05:40:42.360Z,58.44
2017-01-24T05:42:49.866Z,58.46
2017-01-24T05:45:02.423Z,58.45
2017-01-24T05:47:14.879Z,58.42
2017-01-24T05:49:27.484Z,58.43
2017-01-24T05:51:34.980Z,58.42
2017-01-24T05:53:47.366Z,58.42
2017-01-24T05:55:59.952Z,58.43
2017-01-24T05:58:12.312Z,58.4
2017-01-24T06:00:20.573Z,58.39
2017-01-24T06:02:33.972Z,58.42
2017-01-24T06:04:46.165Z,58.47
2017-01-24T06:06:58.379Z,58.47
2017-01-24T06:09:10.872Z,58.51
2017-01-24T06:11:23.212Z,58.43
2017-01-24T06:13:35.597Z,58.44
2017-01-24T06:15:43.065Z,58.45
2017-01-24T06:17:55.650Z,58.44
2017-01-24T06:20:09.053Z,58.44
2017-01-24T06:22:22.285Z,58.46
2017-01-24T06:24:34.550Z,58.51
2017-01-24T06:26:46.759Z,58.5
2017-01-24T06:28:58.933Z,58.53
2017-01-24T06:31:12.163Z,58.5
2017-01-24T06:33:25.987Z,58.46
2017-01-24T06:35:39.849Z,58.49
2017-01-24T06:37:53.299Z,58.5
2017-01-24T06:40:06.546Z,58.47
2017-01-24T06:42:19.921Z,58.45
2017-01-24T06:44:33.671Z,58.42
2017-01-24T06:46:46.921Z,58.44
2017-01-24T06:48:59.690Z,58.5
2017-01-24T06:51:12.167Z,58.53
2017-01-24T06:53:25.278Z,58.5
2017-01-24T06:55:38.002Z,58.51
2017-01-24T06:57:51.619Z,58.49
2017-01-24T07:00:04.611Z,58.52
2017-01-24T07:02:17.430Z,58.54
2017-01-24T07:04:30.738Z,58.51
2017-01-24T07:06:43.615Z,58.44
2017-01-24T07:08:57.079Z,58.43
2017-01-24T07:11:10.004Z,58.4
2017-01-24T07:13:22.528Z,58.38
2017-01-24T07:15:35.133Z,58.37
2017-01-24T07:17:45.679Z,58.34
2017-01-24T07:19:58.151Z,58.27
2017-01-24T07:22:10.589Z,58.27
2017-01-24T07:24:22.774Z,58.28
2017-01-24T07:26:35.089Z,58.17
2017-01-24T07:28:42.547Z,58.19
2017-01-24T07:30:49.738Z,58.16
2017-01-24T07:33:02.033Z,58.12
2017-01-24T07:35:14.326Z,58.16
2017-01-24T07:37:26.807Z,58.16
2017-01-24T07:39:39.198Z,58.1
2017-01-24T07:41:46.614Z,58.12
2017-01-24T07:43:59.770Z,57.91
2017-01-24T07:46:12.393Z,57.86
2017-01-24T07:48:20.048Z,57.85
2017-01-24T07:50:32.483Z,57.81
2017-01-24T07:52:39.852Z,57.76
2017-01-24T07:54:52.191Z,57.75
2017-01-24T07:57:07.037Z,57.66
2017-01-24T07:59:19.498Z,57.62
2017-01-24T08:01:31.775Z,57.54
2017-01-24T08:03:44.291Z,57.52
2017-01-24T08:05:56.607Z,57.64
2017-01-24T08:08:08.816Z,57.67
2017-01-24T08:10:21.268Z,57.61
2017-01-24T08:12:33.678Z,57.54
2017-01-24T08:14:45.983Z,57.48
2017-01-24T08:16:58.591Z,57.43
2017-01-24T08:19:11.500Z,57.44
2017-01-24T08:21:24.598Z,57.47
2017-01-24T08:23:36.884Z,57.44
2017-01-24T08:25:49.207Z,57.41
2017-01-24T08:27:56.559Z,57.36
2017-01-24T08:32:19.306Z,57.34
2017-01-24T08:34:26.532Z,57.33
2017-01-24T08:36:38.922Z,57.37
2017-01-24T08:38:51.149Z,57.35
2017-01-24T08:41:03.579Z,57.34
2017-01-24T08:43:11.011Z,57.34
2017-01-24T08:45:23.222Z,57.34
2017-01-24T08:47:35.705Z,57.27
2017-01-24T08:49:48.064Z,57.19
2017-01-24T08:51:55.324Z,57.09
2017-01-24T08:54:08.197Z,56.99
2017-01-24T08:56:20.718Z,57.01
2017-01-24T08:58:33.047Z,57
2017-01-24T09:00:45.187Z,56.95
2017-01-24T09:02:57.410Z,56.81
2017-01-24T09:05:09.752Z,56.76
2017-01-24T09:07:22.107Z,56.66
2017-01-24T09:09:29.326Z,56.71
2017-01-24T09:11:41.591Z,56.76
2017-01-24T09:13:53.882Z,56.85
2017-01-24T09:16:06.322Z,56.88
2017-01-24T09:18:18.607Z,56.91
2017-01-24T09:20:30.915Z,56.89
2017-01-24T09:22:43.223Z,56.89
2017-01-24T09:24:55.428Z,56.79
2017-01-24T09:27:08.436Z,56.48
2017-01-24T09:29:22.359Z,56.35
2017-01-24T09:31:35.893Z,56.31
2017-01-24T09:33:53.564Z,56.2
2017-01-24T09:36:05.941Z,56.16
2017-01-24T09:38:18.224Z,56.13
2017-01-24T09:40:30.607Z,56.08
2017-01-24T09:42:43.044Z,55.96
2017-01-24T09:44:55.335Z,55.85
2017-01-24T09:47:07.742Z,55.66
2017-01-24T09:49:20.264Z,55.62
2017-01-24T09:51:33.837Z,55.61
2017-01-24T09:53:46.214Z,55.54
2017-01-24T09:55:58.661Z,55.6
2017-01-24T09:58:10.877Z,55.63
2017-01-24T10:00:23.162Z,55.57
2017-01-24T10:02:35.883Z,55.43
2017-01-24T10:04:48.070Z,55.15
2017-01-24T10:07:00.433Z,55.04
2017-01-24T10:09:07.729Z,54.93
2017-01-24T10:11:20.110Z,54.94
2017-01-24T10:13:32.420Z,55.01
2017-01-24T10:15:44.609Z,54.94
2017-01-24T10:17:55.411Z,55.01
2017-01-24T10:20:07.782Z,55.07
2017-01-24T10:22:10.168Z,55
2017-01-24T10:24:17.351Z,54.97
2017-01-24T10:26:32.569Z,54.94
2017-01-24T10:28:39.825Z,55.03
2017-01-24T10:30:50.402Z,55.15
2017-01-24T10:33:02.873Z,55.18
2017-01-24T10:35:15.276Z,55.19
2017-01-24T10:37:22.926Z,55.24
2017-01-24T10:39:30.434Z,55.31
2017-01-24T10:41:44.568Z,55.33
2017-01-24T10:43:46.852Z,55.44
2017-01-24T10:45:59.037Z,55.36
2017-01-24T10:48:11.224Z,55.32
2017-01-24T10:50:23.635Z,55.3
2017-01-24T10:52:35.931Z,55.27
2017-01-24T10:54:48.197Z,55.21
2017-01-24T10:56:55.445Z,55.09
2017-01-24T10:58:57.697Z,55.13
2017-01-24T11:01:10.092Z,55.12
2017-01-24T11:03:22.368Z,55.09
2017-01-24T11:05:34.799Z,54.99
2017-01-24T11:07:37.181Z,54.98
2017-01-24T11:09:49.792Z,55.04
2017-01-24T11:12:02.421Z,55.13
2017-01-24T11:14:16.664Z,55.07
2017-01-24T11:16:29.025Z,55.15
2017-01-24T11:18:41.305Z,55.16
2017-01-24T11:20:53.602Z,55.05
2017-01-24T11:23:06.015Z,54.93
2017-01-24T11:25:18.316Z,54.91
2017-01-24T11:27:30.605Z,54.82
2017-01-24T11:29:42.849Z,54.88
2017-01-24T11:31:55.281Z,54.96
2017-01-24T11:34:07.696Z,54.88
2017-01-24T11:36:20.009Z,54.91
2017-01-24T11:38:32.459Z,54.95
2017-01-24T11:40:44.750Z,55.03
2017-01-24T11:42:52.049Z,55.09
2017-01-24T11:45:04.563Z,55.13
2017-01-24T11:47:17.159Z,55.21
2017-01-24T11:49:29.328Z,55.25
2017-01-24T11:51:41.474Z,55.21
2017-01-24T11:53:53.803Z,55.08
2017-01-24T11:56:06.150Z,55.08
2017-01-24T11:58:18.408Z,54.99
2017-01-24T12:00:25.710Z,54.99
2017-01-24T12:02:38.112Z,54.96
2017-01-24T12:04:50.701Z,55.01
2017-01-24T12:07:02.924Z,55.14
2017-01-24T12:09:15.239Z,55.2
2017-01-24T12:11:30.724Z,55.24
2017-01-24T12:13:42.964Z,55.39
2017-01-24T12:15:50.383Z,55.46
2017-01-24T12:17:52.723Z,55.47
2017-01-24T12:20:08.767Z,55.4
2017-01-24T12:22:21.468Z,55.24
2017-01-24T12:24:28.738Z,55.21
2017-01-24T12:26:41.030Z,55.33
2017-01-24T12:28:53.389Z,55.38
2017-01-24T12:31:05.744Z,55.37
2017-01-24T12:33:18.047Z,55.46
2017-01-24T12:35:30.273Z,55.58
2017-01-24T12:37:42.693Z,55.57
2017-01-24T12:39:55.189Z,55.63
2017-01-24T12:42:02.487Z,55.68
2017-01-24T12:44:14.738Z,55.66
2017-01-24T12:46:26.919Z,55.67
2017-01-24T12:48:34.204Z,55.58
2017-01-24T12:50:41.666Z,55.62
2017-01-24T12:52:54.057Z,55.73
2017-01-24T12:55:06.491Z,55.73
2017-01-24T12:57:19.065Z,55.69
2017-01-24T12:59:31.428Z,55.58
2017-01-24T13:01:43.952Z,55.69
2017-01-24T13:03:51.231Z,55.82
2017-01-24T13:06:03.642Z,55.94
2017-01-24T13:08:15.908Z,56.01
2017-01-24T13:10:28.240Z,56.06
2017-01-24T13:12:40.504Z,56.09
2017-01-24T13:14:47.743Z,56.11
2017-01-24T13:16:55.072Z,56.16
2017-01-24T13:19:07.390Z,56.26
2017-01-24T13:21:15.317Z,56.33
2017-01-24T13:23:27.523Z,56.4
2017-01-24T13:25:39.882Z,56.44
2017-01-24T13:27:52.358Z,56.43
2017-01-24T13:30:04.790Z,56.41
2017-01-24T13:32:17.375Z,56.43
2017-01-24T13:34:29.639Z,56.49
2017-01-24T13:36:41.844Z,56.57
2017-01-24T13:38:49.141Z,56.63
2017-01-24T13:41:01.425Z,56.63
2017-01-24T13:43:08.807Z,56.67
2017-01-24T13:45:14.411Z,56.67
2017-01-24T13:47:30.504Z,56.7
2017-01-24T13:49:37.798Z,56.73
2017-01-24T13:51:51.197Z,56.83
2017-01-24T13:54:03.760Z,56.84
2017-01-24T13:56:11.047Z,56.94
2017-01-24T13:58:18.375Z,57
2017-01-24T14:00:30.561Z,57.04
2017-01-24T14:02:42.715Z,57.08
2017-01-24T14:04:53.801Z,57.19
2017-01-24T14:07:06.185Z,57.25
2017-01-24T14:09:18.647Z,57.22
2017-01-24T14:11:31.014Z,57.25
2017-01-24T14:13:43.228Z,57.32
2017-01-24T14:15:55.656Z,57.35
2017-01-24T14:18:08.060Z,57.42
2017-01-24T14:20:20.499Z,57.47
2017-01-24T14:22:32.992Z,57.5
2017-01-24T14:24:45.586Z,57.57
2017-01-24T14:26:53.184Z,57.57
2017-01-24T14:29:05.548Z,57.6
2017-01-24T14:31:17.915Z,57.6
2017-01-24T14:33:30.186Z,57.62
2017-01-24T14:35:43.540Z,57.67
2017-01-24T14:37:56.618Z,57.77
2017-01-24T14:40:09.241Z,57.89
2017-01-24T14:42:21.541Z,57.99
2017-01-24T14:44:28.993Z,58.04
2017-01-24T14:46:41.153Z,58.05
2017-01-24T14:48:48.552Z,58.08
2017-01-24T14:51:01.138Z,58.08
2017-01-24T14:53:13.511Z,58.13
2017-01-24T14:55:26.043Z,58.27
2017-01-24T14:57:38.276Z,58.34
2017-01-24T14:59:40.615Z,58.37
2017-01-24T15:01:53.050Z,58.44
2017-01-24T15:04:05.371Z,58.5
2017-01-24T15:06:17.914Z,58.59
2017-01-24T15:08:25.709Z,58.64
2017-01-24T15:10:38.217Z,58.6
2017-01-24T15:12:51.143Z,58.54
2017-01-24T15:15:03.744Z,58.56
2017-01-24T15:17:15.994Z,58.61
2017-01-24T15:19:23.351Z,58.7
2017-01-24T15:21:30.839Z,58.84
2017-01-24T15:23:44.374Z,58.96
2017-01-24T15:25:58.010Z,59.05
2017-01-24T15:28:12.654Z,59.14
2017-01-24T15:30:20.802Z,59.22
2017-01-24T15:32:34.369Z,59.35
2017-01-24T15:34:48.236Z,59.37
2017-01-24T15:37:01.241Z,59.38
2017-01-24T15:39:08.954Z,59.4
2017-01-24T15:41:22.353Z,59.46
2017-01-24T15:43:30.790Z,59.5
2017-01-24T15:45:38.133Z,59.56
2017-01-24T15:47:45.576Z,59.61
2017-01-24T15:49:53.166Z,59.64
2017-01-24T15:52:05.641Z,59.66
2017-01-24T15:54:18.253Z,59.63
2017-01-24T15:56:25.794Z,59.66
2017-01-24T15:58:38.216Z,59.74
2017-01-24T16:00:50.813Z,59.75
2017-01-24T16:03:04.772Z,59.82
2017-01-24T16:05:17.842Z,59.89
2017-01-24T16:07:30.572Z,59.87
2017-01-24T16:09:44.148Z,59.82
2017-01-24T16:11:53.152Z,59.79
2017-01-24T16:14:06.271Z,59.8
2017-01-24T16:16:14.132Z,59.84
2017-01-24T16:18:21.878Z,59.85
2017-01-24T16:20:29.611Z,59.82
2017-01-24T16:22:32.789Z,59.78
2017-01-24T16:24:40.474Z,59.79
2017-01-24T16:26:53.249Z,59.78
2017-01-24T16:29:00.616Z,59.76
2017-01-24T16:31:13.037Z,59.74
2017-01-24T16:33:25.363Z,59.79
2017-01-24T16:35:39.177Z,59.79
2017-01-24T16:37:47.434Z,59.76
2017-01-24T16:39:59.723Z,59.81
2017-01-24T16:42:11.908Z,59.78
2017-01-24T16:44:24.333Z,59.78
2017-01-24T16:46:36.849Z,59.81
2017-01-24T16:48:44.201Z,59.83
2017-01-24T16:50:56.540Z,59.81
2017-01-24T16:53:07.205Z,59.8
2017-01-24T16:55:19.689Z,59.82
2017-01-24T16:57:31.932Z,59.86
2017-01-24T16:59:39.751Z,59.86
2017-01-24T17:01:52.411Z,59.88
2017-01-24T17:03:59.737Z,59.89
2017-01-24T17:06:12.078Z,59.83
2017-01-24T17:08:24.311Z,59.81
2017-01-24T17:10:36.780Z,59.9
2017-01-24T17:12:49.221Z,59.88
2017-01-24T17:15:01.650Z,59.9
2017-01-24T17:17:09.225Z,59.83
2017-01-24T17:19:21.722Z,59.82
2017-01-24T17:21:28.963Z,59.86
2017-01-24T17:23:41.332Z,59.89
2017-01-24T17:25:53.567Z,59.94
2017-01-24T17:28:05.817Z,59.95
2017-01-24T17:30:08.068Z,59.95
2017-01-24T17:34:21.465Z,59.96
2017-01-24T17:36:33.831Z,59.93
2017-01-24T17:38:46.454Z,59.9
2017-01-24T17:40:58.879Z,59.87
2017-01-24T17:43:11.550Z,59.88
2017-01-24T17:45:23.852Z,59.85
2017-01-24T17:47:36.256Z,59.81
2017-01-24T17:49:48.700Z,59.85
2017-01-24T17:52:01.093Z,59.85
2017-01-24T17:54:14.598Z,59.83
2017-01-24T17:56:26.998Z,59.84
2017-01-24T17:58:39.606Z,59.89
2017-01-24T18:00:52.564Z,59.91
2017-01-24T18:03:04.889Z,59.91
2017-01-24T18:05:18.068Z,59.89
2017-01-24T18:07:30.409Z,59.87
2017-01-24T18:09:43.871Z,59.88
2017-01-24T18:11:57.468Z,59.81
2017-01-24T18:14:10.188Z,59.8
2017-01-24T18:16:23.010Z,59.82
2017-01-24T18:18:36.672Z,59.79
2017-01-24T18:20:49.002Z,59.86
2017-01-24T18:23:01.615Z,59.87
2017-01-24T18:25:14.654Z,59.87
2017-01-24T18:27:27.355Z,59.89
2017-01-24T18:29:39.920Z,59.88
2017-01-24T18:31:52.700Z,59.87
2017-01-24T18:34:05.710Z,59.88
2017-01-24T18:36:18.410Z,59.88
2017-01-24T18:38:31.677Z,59.87
2017-01-24T18:40:44.083Z,59.88
2017-01-24T18:42:57.779Z,59.85
2017-01-24T18:45:11.615Z,59.86
2017-01-24T18:47:24.605Z,59.88
2017-01-24T18:49:36.951Z,59.91
2017-01-24T18:51:44.662Z,59.94
2017-01-24T18:53:57.150Z,59.94
2017-01-24T18:56:09.673Z,59.89
2017-01-24T18:58:22.777Z,59.88
2017-01-24T19:00:30.360Z,59.93
2017-01-24T19:02:42.864Z,59.92
2017-01-24T19:04:55.183Z,59.9
2017-01-24T19:07:07.513Z,59.89
2017-01-24T19:09:15.160Z,59.89
2017-01-24T19:11:27.406Z,59.89
2017-01-24T19:13:39.668Z,59.9
2017-01-24T19:15:52.207Z,59.92
2017-01-24T19:18:04.542Z,59.98
2017-01-24T19:20:16.941Z,59.98
2017-01-24T19:22:29.232Z,59.94
2017-01-24T19:24:36.812Z,59.92
2017-01-24T19:26:49.492Z,59.88
2017-01-24T19:29:02.541Z,59.95
2017-01-24T19:31:14.911Z,59.95
2017-01-24T19:33:22.349Z,59.95
2017-01-24T19:35:35.805Z,59.97
2017-01-24T19:39:58.887Z,59.98
2017-01-24T19:42:11.166Z,59.95
2017-01-24T19:44:18.613Z,59.92
2017-01-24T19:46:30.801Z,59.93
2017-01-24T19:48:38.248Z,59.91
2017-01-24T19:50:50.469Z,59.95
2017-01-24T19:52:57.927Z,59.96
2017-01-24T19:55:10.396Z,59.92
2017-01-24T19:57:22.784Z,59.92
2017-01-24T19:59:30.221Z,59.93
2017-01-24T20:01:42.679Z,59.96
2017-01-24T20:03:55.285Z,59.98
2017-01-24T20:06:07.755Z,59.99
2017-01-24T20:08:20.147Z,59.97
2017-01-24T20:10:32.495Z,59.96
2017-01-24T20:12:45.041Z,59.98
2017-01-24T20:14:57.228Z,59.96
2017-01-24T20:17:09.652Z,59.94
2017-01-24T20:19:16.886Z,59.91
2017-01-24T20:21:24.127Z,59.94
2017-01-24T20:23:36.649Z,59.95
2017-01-24T20:25:48.908Z,59.99
2017-01-24T20:28:01.311Z,59.98
2017-01-24T20:30:13.613Z,59.94
2017-01-24T20:32:25.976Z,59.93
2017-01-24T20:34:39.200Z,59.96
2017-01-24T20:36:56.063Z,60
2017-01-24T20:39:12.655Z,60.01
2017-01-24T20:41:25.711Z,60.01
2017-01-24T20:43:38.273Z,59.98
2017-01-24T20:45:45.662Z,60
2017-01-24T20:47:58.329Z,60
2017-01-24T20:50:10.902Z,60.01
2017-01-24T20:52:18.284Z,59.99
2017-01-24T20:54:30.744Z,59.93
2017-01-24T20:56:38.265Z,59.94
2017-01-24T20:58:51.642Z,59.97
2017-01-24T21:00:59.121Z,59.98
2017-01-24T21:03:11.476Z,59.96
2017-01-24T21:05:24.129Z,59.96
2017-01-24T21:07:37.139Z,59.99
2017-01-24T21:09:49.392Z,60.02
2017-01-24T21:12:01.764Z,60.01
2017-01-24T21:14:14.598Z,60.03
2017-01-24T21:16:27.644Z,60.04
2017-01-24T21:18:40.159Z,60.06
2017-01-24T21:20:52.658Z,60.07
2017-01-24T21:23:00.068Z,60.09
2017-01-24T21:25:12.415Z,60.06
2017-01-24T21:27:24.920Z,60.05
2017-01-24T21:29:37.254Z,60.08
2017-01-24T21:31:49.542Z,60.1
2017-01-24T21:34:01.735Z,60.11
2017-01-24T21:36:14.026Z,60.11
2017-01-24T21:38:26.361Z,60.12
2017-01-24T21:40:33.753Z,60.12
2017-01-24T21:42:46.117Z,60.1
2017-01-24T21:44:58.330Z,60.13
2017-01-24T21:47:10.741Z,60.15
2017-01-24T21:49:18.003Z,60.13
2017-01-24T21:51:30.433Z,60.11
2017-01-24T21:53:42.756Z,60.13
2017-01-24T21:55:55.064Z,60.14
2017-01-24T21:58:07.326Z,60.12
2017-01-24T22:00:19.484Z,60.12
2017-01-24T22:02:31.883Z,60.11
2017-01-24T22:04:39.327Z,60.13
2017-01-24T22:06:51.568Z,60.14
2017-01-24T22:09:03.884Z,60.15
2017-01-24T22:11:16.028Z,60.15
2017-01-24T22:13:28.270Z,60.12
2017-01-24T22:15:40.457Z,60.13
2017-01-24T22:17:52.689Z,60.13
2017-01-24T22:20:00.031Z,60.14
2017-01-24T22:22:12.268Z,60.12
2017-01-24T22:24:34.035Z,60.09
2017-01-24T22:26:59.656Z,60.06
2017-01-24T22:29:13.081Z,60.04
2017-01-24T22:31:35.887Z,60.01
2017-01-24T22:34:06.076Z,60.02
2017-01-24T22:36:18.429Z,60.02
2017-01-24T22:38:36.562Z,60.04
2017-01-24T22:40:48.886Z,60.07
2017-01-24T22:43:01.222Z,60.07
2017-01-24T22:45:13.626Z,60.04
2017-01-24T22:47:26.074Z,60.02
2017-01-24T22:49:38.491Z,60.06
2017-01-24T22:51:50.786Z,60.05
2017-01-24T22:54:04.778Z,60.04
2017-01-24T22:56:29.672Z,60.04
2017-01-24T22:58:41.822Z,60.05
2017-01-24T23:00:54.176Z,60.05
2017-01-24T23:03:07.077Z,60.03
2017-01-24T23:05:19.469Z,60.03
2017-01-24T23:07:26.694Z,60.01
2017-01-24T23:09:38.975Z,60.01
2017-01-24T23:11:51.347Z,60
2017-01-24T23:14:03.578Z,59.96
2017-01-24T23:16:15.889Z,59.97
2017-01-24T23:18:28.329Z,59.97
2017-01-24T23:20:40.604Z,59.95
2017-01-24T23:22:48.144Z,59.99
2017-01-24T23:25:00.305Z,59.96
2017-01-24T23:27:12.576Z,59.95
2017-01-24T23:29:24.732Z,59.95
2017-01-24T23:31:37.002Z,59.97
2017-01-24T23:33:49.338Z,59.95
2017-01-24T23:36:01.790Z,59.89
2017-01-24T23:38:14.500Z,59.9
2017-01-24T23:40:21.883Z,59.87
2017-01-24T23:42:34.119Z,59.88
2017-01-24T23:44:46.308Z,59.9
2017-01-24T23:46:53.490Z,59.89
2017-01-24T23:49:05.899Z,59.93
2017-01-24T23:51:18.275Z,59.93
2017-01-24T23:53:30.611Z,59.9
2017-01-24T23:55:42.804Z,59.85
2017-01-24T23:57:55.107Z,59.86
